Time;durP1;ratioP1;P1;durP2;ratioP2;P2;SDS_P1;SDS_P2;PMS_P1;PMS_P2;Temp;Humidity;BMP_temperature;BMP_pressure;BME280_temperature;BME280_humidity;BME280_pressure;Samples;Min_cycle;Max_cycle;Signal;HPM_P1;HPM_P2
2022/03/08 00:01:02;;;;;;;25.00;2.63;;;;;;;22.66;52.56;100273.94;7313034;19;128895;-41
2022/03/08 00:03:28;;;;;;;26.23;2.55;;;;;;;22.66;53.41;100276.56;7310017;19;129013;-41
2022/03/08 00:05:53;;;;;;;27.35;2.70;;;;;;;22.65;53.52;100270.47;7309049;19;130807;-41
2022/03/08 00:08:19;;;;;;;46.00;4.18;;;;;;;22.53;52.77;100249.69;7310141;19;130742;-41
2022/03/08 00:10:44;;;;;;;39.47;3.72;;;;;;;22.62;53.38;100268.13;7310074;19;141080;-40
2022/03/08 00:13:09;;;;;;;54.53;5.40;;;;;;;22.55;54.00;100271.38;7311771;19;134830;-42
2022/03/08 00:15:35;;;;;;;44.67;4.07;;;;;;;22.33;55.54;100272.31;7311535;19;130511;-41
2022/03/08 00:18:00;;;;;;;24.30;2.40;;;;;;;22.19;55.55;100267.41;7309628;19;129639;-41
2022/03/08 00:20:26;;;;;;;22.80;2.35;;;;;;;22.20;54.66;100270.81;7310574;19;130676;-42
2022/03/08 00:22:52;;;;;;;46.78;4.70;;;;;;;22.30;55.17;100262.09;7306626;19;130470;-41
2022/03/08 00:25:17;;;;;;;44.23;3.83;;;;;;;22.42;53.57;100265.47;7311040;19;129508;-41
2022/03/08 00:27:47;;;;;;;45.58;4.40;;;;;;;22.60;53.34;100263.94;7308562;19;146735;-40
2022/03/08 00:30:21;;;;;;;34.35;3.35;;;;;;;22.74;53.09;100266.25;7309964;19;129503;-41
2022/03/08 00:32:47;;;;;;;25.80;2.78;;;;;;;22.87;52.23;100259.81;7310601;19;128998;-42
2022/03/08 00:35:13;;;;;;;;;;;;;;;23.00;51.90;100272.72;7310480;19;130637;-40
2022/03/08 00:37:39;;;;;;;34.13;3.20;;;;;;;23.13;51.59;100262.81;7307583;19;158860;-42
2022/03/08 00:40:07;;;;;;;29.77;2.77;;;;;;;23.19;51.10;100257.03;7309023;19;129086;-41
2022/03/08 00:42:32;;;;;;;21.00;2.08;;;;;;;23.18;51.31;100244.88;7311231;19;130227;-42
2022/03/08 00:44:58;;;;;;;30.40;2.85;;;;;;;23.21;51.16;100255.09;7309247;19;157000;-41
2022/03/08 00:47:23;;;;;;;15.15;1.75;;;;;;;23.11;51.35;100251.63;7308562;19;130431;-40
2022/03/08 00:49:48;;;;;;;24.35;2.45;;;;;;;23.10;51.54;100263.09;7311355;19;129056;-41
2022/03/08 00:52:13;;;;;;;33.72;3.22;;;;;;;23.03;51.84;100256.69;7312038;19;152910;-41
2022/03/08 00:54:39;;;;;;;34.65;3.22;;;;;;;22.98;51.44;100253.66;7314741;19;159208;-42
2022/03/08 00:57:05;;;;;;;28.88;2.72;;;;;;;22.86;52.53;100259.94;7313065;19;158595;-40
2022/03/08 00:59:30;;;;;;;20.20;2.10;;;;;;;22.78;52.47;100257.16;7318224;19;129673;-40
2022/03/08 01:01:56;;;;;;;11.60;1.65;;;;;;;22.59;52.75;100242.16;7317231;19;128926;-41
2022/03/08 01:04:21;;;;;;;35.35;3.33;;;;;;;22.64;53.09;100254.88;7315803;19;130897;-41
2022/03/08 01:06:46;;;;;;;47.42;4.13;;;;;;;22.54;53.53;100254.00;7313665;19;129078;-40
2022/03/08 01:09:12;;;;;;;38.15;3.92;;;;;;;22.46;53.47;100248.53;7317407;19;129832;-40
2022/03/08 01:11:39;;;;;;;23.73;2.45;;;;;;;22.40;53.95;100251.66;7317168;19;129010;-41
2022/03/08 01:14:06;;;;;;;27.63;2.70;;;;;;;22.33;54.49;100251.34;7316565;19;130227;-42
2022/03/08 01:16:32;;;;;;;49.58;4.35;;;;;;;22.27;54.08;100246.63;7315788;19;130508;-42
2022/03/08 01:18:57;;;;;;;18.60;2.10;;;;;;;22.18;54.46;100238.72;7315814;19;129012;-41
2022/03/08 01:21:22;;;;;;;19.70;1.92;;;;;;;22.21;55.04;100246.31;7315243;19;153996;-41
2022/03/08 01:23:48;;;;;;;32.63;3.35;;;;;;;22.19;55.43;100248.22;7312363;19;158407;-41
2022/03/08 01:26:14;;;;;;;25.92;2.60;;;;;;;22.17;54.96;100244.91;7317099;19;130542;-40
2022/03/08 01:28:40;;;;;;;20.42;2.35;;;;;;;22.22;55.49;100237.50;7312678;19;130395;-41
2022/03/08 01:31:06;;;;;;;41.10;3.60;;;;;;;22.19;55.29;100235.13;7316346;19;129315;-38
2022/03/08 01:33:31;;;;;;;20.85;2.10;;;;;;;22.20;55.95;100228.91;7315572;19;159984;-41
2022/03/08 01:35:56;;;;;;;26.77;2.40;;;;;;;22.23;55.64;100232.13;7314862;19;157118;-41
2022/03/08 01:38:21;;;;;;;23.95;2.38;;;;;;;22.26;55.55;100228.44;7313078;19;152917;-41
2022/03/08 01:40:47;;;;;;;33.45;3.00;;;;;;;22.27;55.95;100227.47;7316390;19;129044;-40
2022/03/08 01:43:13;;;;;;;26.50;2.42;;;;;;;22.31;55.85;100234.13;7314651;19;130163;-41
2022/03/08 01:45:38;;;;;;;17.33;2.05;;;;;;;22.32;55.67;100228.75;7316214;19;130349;-41
2022/03/08 01:48:03;;;;;;;25.42;2.47;;;;;;;22.39;54.48;100218.56;7315241;19;129339;-42
2022/03/08 01:50:30;;;;;;;7.47;1.10;;;;;;;22.29;55.50;100218.53;7313646;19;155089;-41
2022/03/08 01:52:55;;;;;;;35.20;3.47;;;;;;;22.15;56.38;100215.41;7315335;19;130283;-40
2022/03/08 01:55:21;;;;;;;43.65;4.22;;;;;;;22.12;55.24;100223.50;7313989;19;129793;-37
2022/03/08 01:57:49;;;;;;;26.00;2.57;;;;;;;22.17;55.45;100219.56;7314020;19;130378;-41
2022/03/08 02:00:17;;;;;;;66.53;6.05;;;;;;;22.30;54.53;100216.72;7314536;19;128745;-40
2022/03/08 02:02:43;;;;;;;23.13;2.25;;;;;;;22.44;54.01;100219.03;7313729;19;130343;-41
2022/03/08 02:05:09;;;;;;;33.15;3.25;;;;;;;22.51;52.96;100207.88;7314347;19;129260;-41
2022/03/08 02:07:34;;;;;;;25.87;2.73;;;;;;;22.74;52.73;100219.06;7312986;19;129358;-41
2022/03/08 02:10:00;;;;;;;44.00;4.17;;;;;;;22.92;51.73;100217.47;7312438;19;150564;-40
2022/03/08 02:12:25;;;;;;;28.42;2.28;;;;;;;22.98;51.96;100216.94;7313477;19;158827;-41
2022/03/08 02:14:50;;;;;;;23.65;2.35;;;;;;;23.12;51.48;100214.75;7314601;19;136738;-41
2022/03/08 02:17:16;;;;;;;19.52;2.03;;;;;;;23.19;51.03;100215.03;7312028;19;155324;-40
2022/03/08 02:19:41;;;;;;;40.28;3.78;;;;;;;23.16;51.31;100203.03;7313688;19;153893;-40
2022/03/08 02:22:07;;;;;;;58.13;4.68;;;;;;;23.13;51.73;100207.72;7311807;19;130265;-41
2022/03/08 02:24:32;;;;;;;25.27;2.50;;;;;;;23.02;50.96;100197.34;7315312;19;130330;-40
2022/03/08 02:26:58;;;;;;;25.27;2.60;;;;;;;23.04;51.79;100216.38;7312968;19;138158;-41
2022/03/08 02:29:24;;;;;;;22.25;2.22;;;;;;;22.96;52.17;100214.44;7315746;19;128995;-41
2022/03/08 02:31:49;;;;;;;20.85;2.15;;;;;;;22.87;52.06;100215.22;7315186;19;139354;-42
2022/03/08 02:34:15;;;;;;;36.97;3.93;;;;;;;22.78;52.00;100212.56;7313348;19;130369;-40
2022/03/08 02:36:41;;;;;;;29.23;2.80;;;;;;;22.67;52.81;100217.94;7315486;19;129365;-40
2022/03/08 02:39:07;;;;;;;32.92;3.55;;;;;;;22.53;52.52;100198.13;7313437;19;129747;-39
2022/03/08 02:41:32;;;;;;;19.80;2.10;;;;;;;22.53;53.19;100210.41;7315471;19;129547;-42
2022/03/08 02:43:57;;;;;;;26.65;2.55;;;;;;;22.46;53.19;100209.25;7310722;19;158791;-41
2022/03/08 02:46:23;;;;;;;41.85;3.60;;;;;;;22.41;54.24;100216.66;7312302;19;129244;-40
2022/03/08 02:48:48;;;;;;;30.70;3.13;;;;;;;22.33;53.77;100216.47;7311350;19;154071;-41
2022/03/08 02:51:13;;;;;;;46.38;4.38;;;;;;;22.22;54.42;100208.69;7310155;19;158235;-39
2022/03/08 02:53:38;;;;;;;28.48;2.80;;;;;;;22.22;54.40;100221.78;7313613;19;130727;-42
2022/03/08 02:56:04;;;;;;;41.35;3.67;;;;;;;22.18;55.24;100218.56;7312515;19;153495;-41
2022/03/08 02:58:29;;;;;;;26.77;2.63;;;;;;;22.18;55.33;100215.16;7309532;19;128862;-40
2022/03/08 03:00:54;;;;;;;19.15;1.92;;;;;;;22.13;55.68;100209.47;7312452;19;159044;-41
2022/03/08 03:03:20;;;;;;;30.52;2.90;;;;;;;22.13;55.34;100215.50;7309997;19;159490;-42
2022/03/08 03:05:45;;;;;;;27.95;2.63;;;;;;;22.13;55.30;100214.69;7311736;19;154720;-41
2022/03/08 03:08:10;;;;;;;46.50;3.95;;;;;;;22.10;55.46;100220.19;7310818;19;129882;-41
2022/03/08 03:10:36;;;;;;;7.03;1.23;;;;;;;22.07;54.78;100202.94;7313149;19;133252;-38
2022/03/08 03:13:07;;;;;;;32.78;3.03;;;;;;;22.19;54.28;100216.81;7313448;19;130248;-42
2022/03/08 03:15:33;;;;;;;38.33;3.60;;;;;;;22.34;54.35;100215.50;7311133;19;154768;-42
2022/03/08 03:18:00;;;;;;;26.60;2.58;;;;;;;22.46;54.05;100222.34;7309475;19;129319;-41
2022/03/08 03:20:26;;;;;;;20.37;2.10;;;;;;;22.60;53.35;100217.63;7311545;19;130284;-41
2022/03/08 03:22:52;;;;;;;40.90;4.00;;;;;;;22.76;52.61;100217.97;7311090;19;129305;-42
2022/03/08 03:25:18;;;;;;;39.38;3.83;;;;;;;22.90;52.19;100225.47;7310192;19;131264;-41
2022/03/08 03:27:44;;;;;;;26.50;2.77;;;;;;;23.05;51.45;100218.91;7310249;19;130768;-41
2022/03/08 03:30:13;;;;;;;39.75;3.88;;;;;;;23.21;51.42;100224.47;7311705;19;130260;-41
2022/03/08 03:32:39;;;;;;;51.10;4.38;;;;;;;23.29;50.62;100229.03;7310992;19;131806;-40
2022/03/08 03:35:06;;;;;;;25.52;2.67;;;;;;;23.29;51.36;100231.66;7310440;19;129175;-39
2022/03/08 03:37:32;;;;;;;34.30;3.38;;;;;;;23.29;50.57;100231.66;7309928;19;129880;-42
2022/03/08 03:39:57;;;;;;;28.00;2.60;;;;;;;23.27;51.12;100238.84;7313257;19;129731;-40
2022/03/08 03:42:22;;;;;;;26.40;2.45;;;;;;;23.08;50.92;100221.25;7310227;19;130697;-40
2022/03/08 03:44:48;;;;;;;28.80;2.88;;;;;;;23.10;51.75;100236.84;7311841;19;149692;-41
2022/03/08 03:47:14;;;;;;;36.85;3.28;;;;;;;23.01;51.86;100237.63;7309011;19;154013;-41
2022/03/08 03:49:39;;;;;;;30.17;2.90;;;;;;;22.93;52.05;100240.09;7312907;19;130239;-39
2022/03/08 03:52:04;;;;;;;27.38;2.53;;;;;;;22.81;52.18;100220.19;7311656;19;151333;-41
2022/03/08 03:54:30;;;;;;;19.70;1.95;;;;;;;22.85;52.52;100239.94;7312892;19;129506;-41
2022/03/08 03:56:55;;;;;;;29.45;2.75;;;;;;;22.88;51.87;100234.41;7311262;19;129294;-40
2022/03/08 03:59:21;;;;;;;34.08;3.03;;;;;;;23.15;51.72;100242.53;7312880;19;129262;-41
2022/03/08 04:01:46;;;;;;;21.02;2.08;;;;;;;23.45;50.76;100242.50;7311618;19;158970;-41
2022/03/08 04:04:11;;;;;;;29.70;2.97;;;;;;;23.71;50.48;100248.03;7307735;19;155619;-40
2022/03/08 04:06:37;;;;;;;29.00;2.85;;;;;;;24.04;49.55;100239.78;7311377;19;129565;-41
2022/03/08 04:09:04;;;;;;;21.33;1.92;;;;;;;24.32;48.40;100245.00;7312692;19;129125;-42
2022/03/08 04:11:29;;;;;;;29.25;2.60;;;;;;;24.48;47.62;100245.22;7312363;19;130893;-40
2022/03/08 04:13:54;;;;;;;9.77;1.33;;;;;;;24.69;47.58;100246.84;7309164;19;144614;-42
2022/03/08 04:16:20;;;;;;;29.95;2.90;;;;;;;24.77;47.21;100245.16;7311491;19;129489;-41
2022/03/08 04:18:45;;;;;;;34.35;2.92;;;;;;;24.91;46.53;100243.84;7307467;19;156386;-41
2022/03/08 04:21:10;;;;;;;31.55;3.15;;;;;;;24.95;47.03;100237.31;7309418;19;145790;-40
2022/03/08 04:23:36;;;;;;;20.63;2.10;;;;;;;24.96;46.35;100229.28;7309451;19;137180;-38
2022/03/08 04:26:01;;;;;;;14.60;1.80;;;;;;;24.99;46.60;100233.44;7307934;19;129616;-41
2022/03/08 04:28:26;;;;;;;27.90;2.55;;;;;;;25.04;46.79;100236.47;7307191;19;129647;-41
2022/03/08 04:30:52;;;;;;;29.63;2.80;;;;;;;24.96;46.90;100233.72;7310793;19;158456;-41
2022/03/08 04:33:17;;;;;;;31.13;2.97;;;;;;;24.94;46.40;100233.06;7309370;19;154738;-42
2022/03/08 04:35:42;;;;;;;20.83;2.38;;;;;;;24.89;47.02;100236.09;7308201;19;154493;-40
2022/03/08 04:38:08;;;;;;;33.00;2.93;;;;;;;24.86;46.65;100238.22;7307126;19;129389;-41
2022/03/08 04:40:34;;;;;;;21.37;1.90;;;;;;;24.80;47.25;100241.41;7311729;19;130416;-42
2022/03/08 04:42:59;;;;;;;20.38;2.15;;;;;;;24.68;47.10;100238.13;7310595;19;129054;-42
2022/03/08 04:45:25;;;;;;;49.50;4.63;;;;;;;24.56;48.03;100241.06;7309104;19;154967;-42
2022/03/08 04:47:50;;;;;;;29.38;2.78;;;;;;;24.44;47.44;100235.94;7308906;19;131072;-42
2022/03/08 04:50:16;;;;;;;41.70;3.87;;;;;;;24.33;47.97;100236.13;7309422;19;155862;-41
2022/03/08 04:52:44;;;;;;;37.50;3.57;;;;;;;24.16;48.75;100228.97;7310752;19;129535;-42
2022/03/08 04:55:09;;;;;;;27.10;2.55;;;;;;;24.04;49.31;100229.25;7312022;19;129298;-41
2022/03/08 04:57:35;;;;;;;20.05;1.90;;;;;;;23.97;49.00;100236.84;7306288;19;158053;-42
2022/03/08 05:00:00;;;;;;;7.43;1.27;;;;;;;23.86;49.85;100237.00;7311183;19;144638;-41
2022/03/08 05:02:26;;;;;;;31.05;2.85;;;;;;;23.73;49.94;100230.34;7309442;19;129206;-40
2022/03/08 05:04:51;;;;;;;32.90;3.20;;;;;;;23.57;49.86;100227.44;7309195;19;129854;-41
2022/03/08 05:07:16;;;;;;;29.83;2.97;;;;;;;23.50;50.31;100236.84;7306815;19;152512;-41
2022/03/08 05:09:41;;;;;;;13.00;1.80;;;;;;;23.42;50.44;100242.75;7311179;19;128955;-41
2022/03/08 05:12:10;;;;;;;33.90;3.20;;;;;;;23.32;50.79;100239.28;7307375;19;154703;-41
2022/03/08 05:14:36;;;;;;;29.02;2.63;;;;;;;23.19;50.98;100233.41;7308215;19;129553;-38
2022/03/08 05:17:01;;;;;;;39.40;3.50;;;;;;;23.17;51.35;100243.22;7309381;19;131487;-42
2022/03/08 05:19:27;;;;;;;30.03;2.83;;;;;;;23.05;51.80;100249.53;7309770;19;130218;-41
2022/03/08 05:21:52;;;;;;;19.88;2.13;;;;;;;22.93;51.91;100247.97;7308838;19;154790;-42
2022/03/08 05:24:17;;;;;;;27.53;2.67;;;;;;;22.89;52.43;100250.03;7306193;19;153967;-42
2022/03/08 05:26:43;;;;;;;36.70;3.28;;;;;;;22.85;53.14;100251.25;7305307;19;130735;-41
2022/03/08 05:29:08;;;;;;;24.30;2.53;;;;;;;22.80;53.26;100249.97;7309351;19;131579;-40
2022/03/08 05:31:34;;;;;;;17.73;1.87;;;;;;;22.76;53.40;100253.81;7308442;19;129193;-41
2022/03/08 05:34:00;;;;;;;34.77;3.40;;;;;;;22.66;54.04;100255.59;7308470;19;129648;-41
2022/03/08 05:36:26;;;;;;;34.77;3.20;;;;;;;22.60;53.96;100245.59;7307820;19;129772;-41
2022/03/08 05:38:51;;;;;;;25.80;2.42;;;;;;;22.59;54.42;100259.69;7313069;19;130050;-40
2022/03/08 05:41:16;;;;;;;21.87;2.20;;;;;;;22.56;53.51;100263.38;7316253;19;128839;-41
2022/03/08 05:43:42;;;;;;;22.88;2.20;;;;;;;22.55;54.36;100260.88;7311859;19;154213;-41
2022/03/08 05:46:07;;;;;;;28.75;2.75;;;;;;;22.54;53.96;100265.31;7316365;19;130912;-42
2022/03/08 05:48:32;;;;;;;38.67;3.53;;;;;;;22.53;54.42;100273.28;7310243;19;158608;-41
2022/03/08 05:50:58;;;;;;;21.73;2.17;;;;;;;22.48;54.77;100268.41;7315689;19;130267;-41
2022/03/08 05:53:23;;;;;;;40.40;3.77;;;;;;;22.45;54.39;100267.84;7311737;19;154229;-41
2022/03/08 05:55:48;;;;;;;40.27;3.73;;;;;;;22.46;54.21;100280.81;7313404;19;158251;-41
2022/03/08 05:58:13;;;;;;;40.90;3.75;;;;;;;22.55;54.25;100287.09;7306899;19;158676;-41
2022/03/08 06:00:39;;;;;;;25.80;2.53;;;;;;;22.53;53.82;100281.16;7312386;19;154459;-39
2022/03/08 06:03:04;;;;;;;28.48;2.95;;;;;;;22.59;53.52;100285.91;7311573;19;129938;-40
2022/03/08 06:05:29;;;;;;;44.53;4.13;;;;;;;22.67;52.63;100291.31;7314304;19;131765;-39
2022/03/08 06:07:55;;;;;;;17.38;1.88;;;;;;;22.74;53.04;100295.09;7312169;19;129633;-41
2022/03/08 06:10:20;;;;;;;31.73;2.95;;;;;;;22.84;52.46;100298.59;7313548;19;155129;-40
2022/03/08 06:12:45;;;;;;;26.63;2.45;;;;;;;22.91;52.57;100297.91;7313609;19;154063;-39
2022/03/08 06:15:11;;;;;;;41.30;3.90;;;;;;;23.01;52.06;100295.34;7313117;19;129561;-41
2022/03/08 06:17:37;;;;;;;36.70;3.37;;;;;;;23.06;51.62;100287.91;7311122;19;130537;-41
2022/03/08 06:20:03;;;;;;;39.40;3.57;;;;;;;23.19;51.34;100297.22;7313330;19;129933;-39
2022/03/08 06:22:28;;;;;;;35.50;3.33;;;;;;;23.32;51.00;100304.06;7314824;19;129829;-41
2022/03/08 06:24:53;;;;;;;33.58;2.83;;;;;;;23.39;51.28;100308.63;7313368;19;152521;-36
2022/03/08 06:27:19;;;;;;;67.82;5.70;;;;;;;23.34;50.85;100297.69;7311756;19;130499;-41
2022/03/08 06:29:44;;;;;;;29.83;2.70;;;;;;;23.46;51.05;100307.13;7314641;19;143525;-41
2022/03/08 06:32:10;;;;;;;33.08;3.20;;;;;;;23.40;50.49;100294.56;7314576;19;130094;-40
2022/03/08 06:34:35;;;;;;;43.92;3.60;;;;;;;23.43;50.69;100312.66;7312462;19;130375;-40
2022/03/08 06:37:00;;;;;;;19.73;1.90;;;;;;;23.37;50.87;100320.22;7312832;19;145011;-39
2022/03/08 06:39:25;;;;;;;36.28;3.28;;;;;;;23.21;49.04;100320.69;7301920;19;154473;-41
2022/03/08 06:41:51;;;;;;;44.27;3.87;;;;;;;23.16;49.66;100315.00;7306773;19;153988;-41
2022/03/08 06:44:16;;;;;;;35.38;3.05;;;;;;;23.11;50.33;100317.19;7305823;19;159576;-41
2022/03/08 06:46:44;;;;;;;101.50;7.97;;;;;;;23.06;51.07;100311.50;7300775;19;153191;-41
2022/03/08 06:49:10;;;;;;;31.33;3.05;;;;;;;23.00;51.28;100327.78;7311112;19;129031;-40
2022/03/08 06:51:37;;;;;;;32.80;3.17;;;;;;;22.98;51.08;100316.59;7311216;19;129690;-39
2022/03/08 06:54:03;;;;;;;38.67;3.60;;;;;;;23.01;51.15;100321.56;7311716;19;130364;-41
2022/03/08 06:56:29;;;;;;;37.40;3.30;;;;;;;23.05;51.87;100315.09;7310387;19;130183;-40
2022/03/08 06:58:54;;;;;;;10.93;1.42;;;;;;;23.04;51.13;100323.91;7310634;19;135938;-40
2022/03/08 07:01:19;;;;;;;52.20;4.78;;;;;;;23.09;51.54;100322.56;7312465;19;154227;-40
2022/03/08 07:03:44;;;;;;;40.27;3.40;;;;;;;23.18;51.13;100326.19;7310742;19;130525;-40
2022/03/08 07:06:10;;;;;;;27.00;2.77;;;;;;;23.24;51.27;100328.28;7312224;19;159404;-40
2022/03/08 07:08:36;;;;;;;34.08;3.08;;;;;;;23.31;50.67;100329.44;7308721;19;131942;-38
2022/03/08 07:11:03;;;;;;;29.48;2.92;;;;;;;23.37;51.11;100328.91;7314261;19;129426;-41
2022/03/08 07:13:29;;;;;;;14.68;1.73;;;;;;;23.42;50.45;100329.34;7312051;19;130184;-41
2022/03/08 07:15:54;;;;;;;25.27;2.47;;;;;;;23.45;50.42;100326.47;7313651;19;130944;-41
2022/03/08 07:18:19;;;;;;;26.50;2.60;;;;;;;23.55;50.18;100335.19;7309082;19;154771;-41
2022/03/08 07:20:44;;;;;;;9.65;1.45;;;;;;;23.61;50.04;100333.81;7312175;19;149164;-39
2022/03/08 07:23:10;;;;;;;24.53;2.37;;;;;;;23.66;49.94;100336.88;7311505;19;157401;-41
2022/03/08 07:25:35;;;;;;;24.88;2.60;;;;;;;23.70;49.64;100336.47;7313110;19;130733;-39
2022/03/08 07:28:00;;;;;;;28.70;2.70;;;;;;;23.75;50.18;100325.56;7310181;19;129595;-40
2022/03/08 07:30:26;;;;;;;23.80;2.30;;;;;;;23.69;49.99;100321.69;7310751;19;156798;-41
2022/03/08 07:32:51;;;;;;;20.92;2.30;;;;;;;23.67;50.23;100331.47;7311479;19;157936;-40
2022/03/08 07:35:17;;;;;;;36.60;3.25;;;;;;;23.59;50.40;100326.09;7310440;19;129536;-40
2022/03/08 07:37:42;;;;;;;22.70;2.25;;;;;;;23.49;50.13;100322.59;7312314;19;129403;-41
2022/03/08 07:40:08;;;;;;;29.30;2.60;;;;;;;23.40;50.37;100315.56;7311888;19;152615;-40
2022/03/08 07:42:33;;;;;;;33.77;3.30;;;;;;;23.43;50.30;100338.91;7311981;19;132632;-41
2022/03/08 07:44:59;;;;;;;21.27;2.23;;;;;;;23.42;51.17;100331.97;7309874;19;130448;-40
2022/03/08 07:47:24;;;;;;;22.13;2.00;;;;;;;23.40;50.68;100331.28;7309797;19;155319;-40
2022/03/08 07:49:50;;;;;;;27.40;2.75;;;;;;;23.39;51.21;100337.50;7311453;19;129053;-41
2022/03/08 07:52:15;;;;;;;33.17;3.33;;;;;;;23.41;50.59;100335.56;7312627;19;132950;-39
2022/03/08 07:54:40;;;;;;;26.87;2.70;;;;;;;23.47;50.79;100331.59;7313891;19;130290;-41
2022/03/08 07:57:05;;;;;;;39.47;4.03;;;;;;;23.51;50.93;100332.97;7309888;19;155788;-40
2022/03/08 07:59:31;;;;;;;20.30;2.03;;;;;;;23.49;50.32;100321.75;7312966;19;129023;-39
2022/03/08 08:01:56;;;;;;;20.77;2.03;;;;;;;23.63;49.94;100330.13;7312391;19;130157;-41
2022/03/08 08:04:23;;;;;;;21.90;2.30;;;;;;;23.64;49.88;100329.13;7310204;19;157311;-40
2022/03/08 08:06:48;;;;;;;25.02;2.38;;;;;;;23.69;50.48;100329.56;7313457;19;129748;-41
2022/03/08 08:09:14;;;;;;;27.93;2.60;;;;;;;23.71;50.40;100335.50;7309963;19;155404;-41
2022/03/08 08:11:39;;;;;;;25.80;2.67;;;;;;;23.70;49.74;100327.78;7313142;19;129559;-40
2022/03/08 08:14:05;;;;;;;22.80;2.13;;;;;;;23.61;50.32;100316.28;7310728;19;158516;-41
2022/03/08 08:16:30;;;;;;;28.00;2.73;;;;;;;23.58;50.38;100327.06;7311858;19;129444;-41
2022/03/08 08:18:58;;;;;;;16.17;1.73;;;;;;;23.54;50.20;100325.66;7312881;19;129873;-39
2022/03/08 08:21:23;;;;;;;41.38;3.85;;;;;;;23.46;50.66;100325.50;7311338;19;130187;-41
2022/03/08 08:23:48;;;;;;;32.53;3.13;;;;;;;23.38;50.90;100324.50;7309332;19;129602;-40
2022/03/08 08:26:14;;;;;;;13.03;1.70;;;;;;;23.36;51.20;100331.66;7310751;19;153483;-40
2022/03/08 08:28:39;;;;;;;24.77;2.35;;;;;;;23.32;51.52;100328.47;7308037;19;155423;-41
2022/03/08 08:31:04;;;;;;;49.75;3.95;;;;;;;23.31;51.28;100324.22;7308925;19;159255;-40
2022/03/08 08:33:29;;;;;;;21.38;2.00;;;;;;;23.30;51.50;100332.22;7309130;19;158425;-41
2022/03/08 08:35:56;;;;;;;24.38;2.55;;;;;;;23.32;51.33;100330.28;7311144;19;155239;-40
2022/03/08 08:38:21;;;;;;;23.20;2.30;;;;;;;23.26;50.98;100321.13;7310337;19;129833;-41
2022/03/08 08:40:46;;;;;;;32.63;2.90;;;;;;;23.36;51.39;100329.03;7311188;19;150893;-40
2022/03/08 08:43:12;;;;;;;25.15;2.45;;;;;;;23.32;50.92;100325.84;7308632;19;158914;-41
2022/03/08 08:45:37;;;;;;;37.93;3.73;;;;;;;23.46;50.51;100335.16;7309851;19;129847;-40
2022/03/08 08:48:07;;;;;;;17.45;1.80;;;;;;;23.46;50.92;100327.28;7310112;19;129677;-39
2022/03/08 08:50:33;;;;;;;21.20;2.20;;;;;;;23.42;51.01;100334.59;7312414;19;130140;-40
2022/03/08 08:52:58;;;;;;;14.15;1.77;;;;;;;23.38;50.70;100324.50;7311340;19;129267;-41
2022/03/08 08:55:24;;;;;;;23.90;2.45;;;;;;;23.32;51.52;100325.84;7312616;19;129118;-40
2022/03/08 08:57:49;;;;;;;23.65;2.47;;;;;;;23.29;51.10;100328.75;7310114;19;129931;-41
2022/03/08 09:00:15;;;;;;;36.30;3.55;;;;;;;23.19;51.02;100319.97;7308790;19;158287;-40
2022/03/08 09:02:44;;;;;;;23.27;2.42;;;;;;;23.18;52.08;100339.31;7310685;19;130232;-41
2022/03/08 09:05:10;;;;;;;24.70;2.40;;;;;;;23.15;51.99;100329.09;7308834;19;128999;-40
2022/03/08 09:07:36;;;;;;;21.48;2.22;;;;;;;23.08;51.79;100322.69;7307506;19;129037;-40
2022/03/08 09:10:02;;;;;;;24.90;2.30;;;;;;;23.14;51.72;100327.41;7310449;19;130187;-40
2022/03/08 09:12:28;;;;;;;6.20;1.00;;;;;;;23.12;51.49;100324.13;7311318;19;130329;-40
2022/03/08 09:14:54;;;;;;;22.07;2.23;;;;;;;23.09;51.77;100308.63;7315892;19;129088;-40
2022/03/08 09:17:20;;;;;;;35.35;3.33;;;;;;;23.19;51.74;100318.19;7314029;19;129045;-41
2022/03/08 09:19:45;;;;;;;27.73;2.58;;;;;;;23.21;51.51;100324.16;7317116;19;129158;-41
2022/03/08 09:22:10;;;;;;;33.17;3.03;;;;;;;23.26;51.61;100318.50;7316360;19;130740;-41
2022/03/08 09:24:37;;;;;;;16.02;1.70;;;;;;;23.29;51.25;100310.38;7314023;19;155122;-39
2022/03/08 09:27:03;;;;;;;25.80;2.47;;;;;;;23.29;51.28;100315.63;7316403;19;129794;-41
2022/03/08 09:29:28;;;;;;;26.10;2.45;;;;;;;23.23;51.49;100305.66;7317239;19;131182;-42
2022/03/08 09:31:54;;;;;;;18.92;1.88;;;;;;;23.27;51.62;100316.75;7317092;19;129601;-40
2022/03/08 09:34:19;;;;;;;15.35;1.67;;;;;;;23.23;51.96;100316.97;7316388;19;154697;-41
2022/03/08 09:36:44;;;;;;;29.25;2.67;;;;;;;23.20;52.00;100321.66;7315331;19;129118;-40
2022/03/08 09:39:10;;;;;;;41.33;3.93;;;;;;;23.15;52.00;100318.59;7315279;19;158270;-41
2022/03/08 09:41:36;;;;;;;17.85;1.88;;;;;;;23.09;51.67;100319.94;7316613;19;130420;-39
2022/03/08 09:44:03;;;;;;;26.70;2.70;;;;;;;23.07;51.89;100326.31;7315567;19;129328;-40
2022/03/08 09:46:28;;;;;;;25.10;2.35;;;;;;;22.99;52.18;100315.63;7316044;19;129688;-39
2022/03/08 09:48:53;;;;;;;24.40;2.40;;;;;;;23.01;52.33;100324.19;7317143;19;130645;-40
2022/03/08 09:51:20;;;;;;;22.75;2.20;;;;;;;23.02;52.68;100318.00;7315681;19;148875;-40
2022/03/08 09:53:46;;;;;;;27.33;2.58;;;;;;;23.03;52.30;100328.34;7316075;19;129343;-41
2022/03/08 09:56:12;;;;;;;26.20;2.55;;;;;;;23.04;51.98;100329.16;7317573;19;129423;-41
2022/03/08 09:58:40;;;;;;;13.30;1.83;;;;;;;23.08;52.43;100322.69;7313409;19;158661;-41
2022/03/08 10:01:05;;;;;;;32.13;3.10;;;;;;;23.13;52.26;100325.75;7316913;19;130468;-40
2022/03/08 10:03:32;;;;;;;14.82;1.67;;;;;;;23.16;51.52;100315.84;7315780;19;147746;-39
2022/03/08 10:05:58;;;;;;;25.50;2.35;;;;;;;23.18;52.11;100313.09;7315611;19;130191;-41
2022/03/08 10:08:26;;;;;;;20.27;1.83;;;;;;;23.20;51.99;100306.72;7313372;19;130523;-40
2022/03/08 10:11:03;;;;;;;18.55;2.03;;;;;;;23.19;51.82;100299.84;7315734;19;129604;-41
2022/03/08 10:13:35;;;;;;;21.02;1.85;;;;;;;23.15;52.21;100314.16;7315202;19;128857;-38
2022/03/08 10:16:23;;;;;;;24.90;2.17;;;;;;;23.08;51.97;100314.84;7315116;19;130263;-39
2022/03/08 10:18:53;;;;;;;22.13;2.10;;;;;;;23.08;52.12;100306.97;7312927;19;130886;-39
2022/03/08 10:21:29;;;;;;;43.40;3.88;;;;;;;23.04;52.24;100310.81;7315367;19;130508;-39
2022/03/08 10:23:56;;;;;;;16.93;1.87;;;;;;;22.95;52.81;100307.19;7310658;19;128770;-39
2022/03/08 10:26:22;;;;;;;23.00;2.13;;;;;;;22.89;53.17;100293.78;7315484;19;129315;-39
2022/03/08 10:28:50;;;;;;;21.83;2.33;;;;;;;22.90;52.49;100291.03;7312133;19;130375;-38
2022/03/08 10:31:16;;;;;;;29.13;2.75;;;;;;;22.92;52.73;100293.50;7315110;19;131381;-42
2022/03/08 10:33:42;;;;;;;23.48;2.35;;;;;;;22.91;53.06;100294.47;7315155;19;130104;-38
2022/03/08 10:36:16;;;;;;;33.58;3.10;;;;;;;22.93;52.29;100292.53;7314689;19;129112;-38
2022/03/08 10:39:07;;;;;;;21.95;2.00;;;;;;;22.97;52.79;100296.56;7312128;19;130733;-39
2022/03/08 10:41:32;;;;;;;27.08;2.47;;;;;;;23.02;52.24;100286.53;7314822;19;130413;-39
2022/03/08 10:43:58;;;;;;;39.53;3.45;;;;;;;22.99;52.63;100281.56;7313321;19;130018;-39
2022/03/08 10:46:24;;;;;;;28.90;2.77;;;;;;;23.10;52.26;100289.31;7313079;19;129416;-39
2022/03/08 10:48:49;;;;;;;22.67;2.17;;;;;;;23.02;51.98;100276.03;7314115;19;130570;-39
2022/03/08 10:51:15;;;;;;;30.97;2.73;;;;;;;23.07;52.41;100290.38;7313076;19;156347;-40
2022/03/08 10:53:43;;;;;;;29.63;2.88;;;;;;;23.10;51.83;100287.53;7313653;19;131311;-39
2022/03/08 10:56:09;;;;;;;31.40;2.63;;;;;;;23.01;52.71;100282.22;7315370;19;129493;-39
2022/03/08 10:58:48;;;;;;;22.55;2.05;;;;;;;22.94;52.48;100281.91;7312890;19;130216;-39
2022/03/08 11:01:13;;;;;;;22.77;2.22;;;;;;;22.93;52.21;100282.06;7314554;19;130987;-38
2022/03/08 11:03:38;;;;;;;22.92;2.35;;;;;;;22.88;53.13;100284.25;7314352;19;129158;-40